sensor_id;sensor_type;location;lat;lon;timestamp;P1;durP1;ratioP1;P2;durP2;ratioP2
30384;SDS011;17181;51.002;4.096;2022-10-31T00:01:00;7.73;;;4.93;;
30384;SDS011;17181;51.002;4.096;2022-10-31T00:03:26;13.57;;;5.57;;
30384;SDS011;17181;51.002;4.096;2022-10-31T00:05:51;5.60;;;4.63;;
30384;SDS011;17181;51.002;4.096;2022-10-31T00:08:18;13.90;;;5.20;;
30384;SDS011;17181;51.002;4.096;2022-10-31T00:10:44;10.33;;;5.57;;
30384;SDS011;17181;51.002;4.096;2022-10-31T00:13:11;11.00;;;5.97;;
30384;SDS011;17181;51.002;4.096;2022-10-31T00:15:39;10.47;;;5.17;;
30384;SDS011;17181;51.002;4.096;2022-10-31T00:18:06;10.90;;;5.83;;
30384;SDS011;17181;51.002;4.096;2022-10-31T00:20:33;11.40;;;5.17;;
30384;SDS011;17181;51.002;4.096;2022-10-31T00:22:59;7.30;;;4.77;;
30384;SDS011;17181;51.002;4.096;2022-10-31T00:25:26;8.87;;;4.53;;
30384;SDS011;17181;51.002;4.096;2022-10-31T00:27:53;9.63;;;4.57;;
30384;SDS011;17181;51.002;4.096;2022-10-31T00:30:20;7.90;;;3.73;;
30384;SDS011;17181;51.002;4.096;2022-10-31T00:32:45;13.37;;;5.77;;
30384;SDS011;17181;51.002;4.096;2022-10-31T00:35:11;15.03;;;4.50;;
30384;SDS011;17181;51.002;4.096;2022-10-31T00:37:37;13.07;;;6.03;;
30384;SDS011;17181;51.002;4.096;2022-10-31T00:40:03;16.63;;;5.10;;
30384;SDS011;17181;51.002;4.096;2022-10-31T00:42:30;12.93;;;5.33;;
30384;SDS011;17181;51.002;4.096;2022-10-31T00:44:57;24.83;;;6.23;;
30384;SDS011;17181;51.002;4.096;2022-10-31T00:47:22;10.50;;;4.73;;
30384;SDS011;17181;51.002;4.096;2022-10-31T00:49:48;9.17;;;5.20;;
30384;SDS011;17181;51.002;4.096;2022-10-31T00:52:14;8.03;;;5.13;;
30384;SDS011;17181;51.002;4.096;2022-10-31T00:54:41;11.70;;;4.53;;
30384;SDS011;17181;51.002;4.096;2022-10-31T00:57:07;9.57;;;5.23;;
30384;SDS011;17181;51.002;4.096;2022-10-31T00:59:33;7.93;;;4.63;;
30384;SDS011;17181;51.002;4.096;2022-10-31T01:01:58;7.70;;;4.67;;
30384;SDS011;17181;51.002;4.096;2022-10-31T01:04:25;12.17;;;4.70;;
30384;SDS011;17181;51.002;4.096;2022-10-31T01:06:50;10.50;;;5.47;;
30384;SDS011;17181;51.002;4.096;2022-10-31T01:09:16;9.40;;;4.97;;
30384;SDS011;17181;51.002;4.096;2022-10-31T01:11:42;16.37;;;4.70;;
30384;SDS011;17181;51.002;4.096;2022-10-31T01:14:08;5.70;;;4.40;;
30384;SDS011;17181;51.002;4.096;2022-10-31T01:16:34;7.67;;;4.93;;
30384;SDS011;17181;51.002;4.096;2022-10-31T01:19:00;9.33;;;4.87;;
30384;SDS011;17181;51.002;4.096;2022-10-31T01:21:27;10.43;;;4.27;;
30384;SDS011;17181;51.002;4.096;2022-10-31T01:23:57;8.47;;;5.13;;
30384;SDS011;17181;51.002;4.096;2022-10-31T01:26:28;10.27;;;4.90;;
30384;SDS011;17181;51.002;4.096;2022-10-31T01:28:59;10.40;;;4.37;;
30384;SDS011;17181;51.002;4.096;2022-10-31T01:31:28;14.33;;;5.23;;
30384;SDS011;17181;51.002;4.096;2022-10-31T01:33:57;9.50;;;4.87;;
30384;SDS011;17181;51.002;4.096;2022-10-31T01:36:25;8.37;;;5.13;;
30384;SDS011;17181;51.002;4.096;2022-10-31T01:38:52;7.80;;;3.63;;
30384;SDS011;17181;51.002;4.096;2022-10-31T01:41:21;6.03;;;3.70;;
30384;SDS011;17181;51.002;4.096;2022-10-31T01:43:56;7.07;;;4.13;;
30384;SDS011;17181;51.002;4.096;2022-10-31T01:48:56;4.23;;;3.10;;
30384;SDS011;17181;51.002;4.096;2022-10-31T01:51:28;9.33;;;4.50;;
30384;SDS011;17181;51.002;4.096;2022-10-31T01:53:59;6.70;;;2.60;;
30384;SDS011;17181;51.002;4.096;2022-10-31T01:56:32;5.33;;;2.93;;
30384;SDS011;17181;51.002;4.096;2022-10-31T01:59:04;5.23;;;3.13;;
30384;SDS011;17181;51.002;4.096;2022-10-31T02:01:33;8.53;;;4.90;;
30384;SDS011;17181;51.002;4.096;2022-10-31T02:04:00;13.33;;;4.87;;
30384;SDS011;17181;51.002;4.096;2022-10-31T02:06:33;5.83;;;3.63;;
30384;SDS011;17181;51.002;4.096;2022-10-31T02:09:04;7.23;;;3.83;;
30384;SDS011;17181;51.002;4.096;2022-10-31T02:11:31;7.67;;;3.80;;
30384;SDS011;17181;51.002;4.096;2022-10-31T02:13:59;5.10;;;3.60;;
30384;SDS011;17181;51.002;4.096;2022-10-31T02:16:26;9.30;;;4.20;;
30384;SDS011;17181;51.002;4.096;2022-10-31T02:18:52;7.20;;;4.17;;
30384;SDS011;17181;51.002;4.096;2022-10-31T02:41:06;2.30;;;2.10;;
30384;SDS011;17181;51.002;4.096;2022-10-31T02:43:54;6.83;;;3.37;;
30384;SDS011;17181;51.002;4.096;2022-10-31T02:49:11;4.10;;;3.10;;
30384;SDS011;17181;51.002;4.096;2022-10-31T02:51:46;13.33;;;4.30;;
30384;SDS011;17181;51.002;4.096;2022-10-31T02:54:19;38.77;;;3.67;;
30384;SDS011;17181;51.002;4.096;2022-10-31T02:56:57;113.70;;;4.93;;
30384;SDS011;17181;51.002;4.096;2022-10-31T02:59:30;59.90;;;4.20;;
30384;SDS011;17181;51.002;4.096;2022-10-31T03:02:05;4.60;;;3.23;;
30384;SDS011;17181;51.002;4.096;2022-10-31T03:04:43;5.53;;;3.33;;
30384;SDS011;17181;51.002;4.096;2022-10-31T03:07:39;3.67;;;3.13;;
30384;SDS011;17181;51.002;4.096;2022-10-31T03:15:31;47.20;;;2.53;;
30384;SDS011;17181;51.002;4.096;2022-10-31T03:18:13;35.00;;;2.73;;
30384;SDS011;17181;51.002;4.096;2022-10-31T03:23:26;1.33;;;1.23;;
30384;SDS011;17181;51.002;4.096;2022-10-31T03:25:55;2.60;;;1.83;;
30384;SDS011;17181;51.002;4.096;2022-10-31T03:28:26;3.93;;;2.00;;
30384;SDS011;17181;51.002;4.096;2022-10-31T03:30:57;13.50;;;2.30;;
30384;SDS011;17181;51.002;4.096;2022-10-31T03:33:26;7.40;;;3.37;;
30384;SDS011;17181;51.002;4.096;2022-10-31T03:35:57;9.80;;;3.97;;
30384;SDS011;17181;51.002;4.096;2022-10-31T03:38:25;31.40;;;4.70;;
30384;SDS011;17181;51.002;4.096;2022-10-31T03:40:52;4.77;;;3.27;;
30384;SDS011;17181;51.002;4.096;2022-10-31T03:43:24;3.03;;;2.00;;
30384;SDS011;17181;51.002;4.096;2022-10-31T03:45:53;4.40;;;1.80;;
30384;SDS011;17181;51.002;4.096;2022-10-31T03:48:20;2.73;;;1.73;;
30384;SDS011;17181;51.002;4.096;2022-10-31T03:51:07;58.13;;;2.43;;
30384;SDS011;17181;51.002;4.096;2022-10-31T03:53:46;1.07;;;0.97;;
30384;SDS011;17181;51.002;4.096;2022-10-31T03:56:44;2.03;;;1.30;;
30384;SDS011;17181;51.002;4.096;2022-10-31T03:59:16;4.70;;;2.87;;
30384;SDS011;17181;51.002;4.096;2022-10-31T04:01:50;6.50;;;2.63;;
30384;SDS011;17181;51.002;4.096;2022-10-31T04:04:21;5.60;;;2.43;;
30384;SDS011;17181;51.002;4.096;2022-10-31T04:06:48;29.47;;;3.43;;
30384;SDS011;17181;51.002;4.096;2022-10-31T04:09:15;14.17;;;2.67;;
30384;SDS011;17181;51.002;4.096;2022-10-31T04:11:45;8.13;;;2.20;;
30384;SDS011;17181;51.002;4.096;2022-10-31T04:14:35;5.17;;;1.90;;
30384;SDS011;17181;51.002;4.096;2022-10-31T04:17:07;6.43;;;2.67;;
30384;SDS011;17181;51.002;4.096;2022-10-31T04:19:39;42.43;;;2.53;;
30384;SDS011;17181;51.002;4.096;2022-10-31T04:22:07;20.73;;;1.70;;
30384;SDS011;17181;51.002;4.096;2022-10-31T04:24:33;2.67;;;1.67;;
30384;SDS011;17181;51.002;4.096;2022-10-31T04:26:59;1.97;;;1.60;;
30384;SDS011;17181;51.002;4.096;2022-10-31T04:29:26;3.77;;;2.03;;
30384;SDS011;17181;51.002;4.096;2022-10-31T04:31:52;4.73;;;2.20;;
30384;SDS011;17181;51.002;4.096;2022-10-31T04:34:17;4.20;;;2.03;;
30384;SDS011;17181;51.002;4.096;2022-10-31T04:36:43;2.63;;;1.93;;
30384;SDS011;17181;51.002;4.096;2022-10-31T04:39:13;11.77;;;3.70;;
30384;SDS011;17181;51.002;4.096;2022-10-31T04:41:59;23.37;;;2.90;;
30384;SDS011;17181;51.002;4.096;2022-10-31T04:44:24;20.73;;;3.23;;
30384;SDS011;17181;51.002;4.096;2022-10-31T04:46:52;3.13;;;2.07;;
30384;SDS011;17181;51.002;4.096;2022-10-31T04:49:18;10.07;;;2.43;;
30384;SDS011;17181;51.002;4.096;2022-10-31T04:51:44;2.67;;;2.47;;
30384;SDS011;17181;51.002;4.096;2022-10-31T04:54:10;1.40;;;1.20;;
30384;SDS011;17181;51.002;4.096;2022-10-31T04:57:07;2.53;;;2.20;;
30384;SDS011;17181;51.002;4.096;2022-10-31T04:59:33;4.30;;;2.33;;
30384;SDS011;17181;51.002;4.096;2022-10-31T05:01:58;2.67;;;2.30;;
30384;SDS011;17181;51.002;4.096;2022-10-31T05:04:40;14.10;;;2.73;;
30384;SDS011;17181;51.002;4.096;2022-10-31T05:07:06;20.23;;;2.93;;
30384;SDS011;17181;51.002;4.096;2022-10-31T05:09:32;2.20;;;1.93;;
30384;SDS011;17181;51.002;4.096;2022-10-31T05:11:58;3.33;;;2.47;;
30384;SDS011;17181;51.002;4.096;2022-10-31T05:14:42;4.13;;;2.50;;
30384;SDS011;17181;51.002;4.096;2022-10-31T05:17:26;3.17;;;2.40;;
30384;SDS011;17181;51.002;4.096;2022-10-31T05:20:22;3.93;;;2.90;;
30384;SDS011;17181;51.002;4.096;2022-10-31T05:23:12;8.37;;;3.60;;
30384;SDS011;17181;51.002;4.096;2022-10-31T05:25:39;5.23;;;2.90;;
30384;SDS011;17181;51.002;4.096;2022-10-31T05:28:06;2.20;;;2.00;;
30384;SDS011;17181;51.002;4.096;2022-10-31T05:30:34;4.90;;;2.83;;
30384;SDS011;17181;51.002;4.096;2022-10-31T05:33:02;2.20;;;2.00;;
30384;SDS011;17181;51.002;4.096;2022-10-31T05:35:37;6.30;;;3.87;;
30384;SDS011;17181;51.002;4.096;2022-10-31T05:38:27;6.07;;;3.47;;
30384;SDS011;17181;51.002;4.096;2022-10-31T05:40:57;7.90;;;4.83;;
30384;SDS011;17181;51.002;4.096;2022-10-31T05:43:25;1.93;;;1.77;;
30384;SDS011;17181;51.002;4.096;2022-10-31T05:45:52;2.00;;;1.83;;
30384;SDS011;17181;51.002;4.096;2022-10-31T05:48:38;34.50;;;3.10;;
30384;SDS011;17181;51.002;4.096;2022-10-31T05:51:42;3.73;;;2.07;;
30384;SDS011;17181;51.002;4.096;2022-10-31T05:54:09;2.30;;;2.10;;
30384;SDS011;17181;51.002;4.096;2022-10-31T05:56:36;4.67;;;2.87;;
30384;SDS011;17181;51.002;4.096;2022-10-31T05:59:02;5.43;;;3.10;;
30384;SDS011;17181;51.002;4.096;2022-10-31T06:01:28;3.47;;;2.37;;
30384;SDS011;17181;51.002;4.096;2022-10-31T06:03:57;3.97;;;2.80;;
30384;SDS011;17181;51.002;4.096;2022-10-31T06:06:23;5.80;;;3.80;;
30384;SDS011;17181;51.002;4.096;2022-10-31T06:08:49;7.70;;;3.93;;
30384;SDS011;17181;51.002;4.096;2022-10-31T06:11:19;6.30;;;2.67;;
30384;SDS011;17181;51.002;4.096;2022-10-31T06:14:13;5.67;;;3.97;;
30384;SDS011;17181;51.002;4.096;2022-10-31T06:16:51;4.60;;;2.67;;
30384;SDS011;17181;51.002;4.096;2022-10-31T06:19:46;5.77;;;2.37;;
30384;SDS011;17181;51.002;4.096;2022-10-31T06:22:17;3.77;;;2.23;;
30384;SDS011;17181;51.002;4.096;2022-10-31T06:24:43;3.37;;;2.37;;
30384;SDS011;17181;51.002;4.096;2022-10-31T06:27:27;2.77;;;2.40;;
30384;SDS011;17181;51.002;4.096;2022-10-31T06:29:53;4.03;;;2.77;;
30384;SDS011;17181;51.002;4.096;2022-10-31T06:32:29;4.23;;;2.70;;
30384;SDS011;17181;51.002;4.096;2022-10-31T06:34:55;5.53;;;2.23;;
30384;SDS011;17181;51.002;4.096;2022-10-31T06:37:22;6.77;;;3.27;;
30384;SDS011;17181;51.002;4.096;2022-10-31T06:39:48;4.20;;;2.77;;
30384;SDS011;17181;51.002;4.096;2022-10-31T06:42:15;7.73;;;2.77;;
30384;SDS011;17181;51.002;4.096;2022-10-31T06:44:42;8.20;;;3.83;;
30384;SDS011;17181;51.002;4.096;2022-10-31T06:47:34;6.37;;;2.37;;
30384;SDS011;17181;51.002;4.096;2022-10-31T06:50:09;6.33;;;3.00;;
30384;SDS011;17181;51.002;4.096;2022-10-31T06:52:35;5.77;;;4.17;;
30384;SDS011;17181;51.002;4.096;2022-10-31T06:55:03;7.77;;;3.67;;
30384;SDS011;17181;51.002;4.096;2022-10-31T06:57:31;7.63;;;3.50;;
30384;SDS011;17181;51.002;4.096;2022-10-31T06:59:56;7.60;;;4.43;;
30384;SDS011;17181;51.002;4.096;2022-10-31T07:02:41;5.03;;;2.97;;
30384;SDS011;17181;51.002;4.096;2022-10-31T07:05:06;7.70;;;4.97;;
30384;SDS011;17181;51.002;4.096;2022-10-31T07:07:32;6.87;;;3.70;;
30384;SDS011;17181;51.002;4.096;2022-10-31T07:09:58;9.33;;;3.83;;
30384;SDS011;17181;51.002;4.096;2022-10-31T07:12:40;15.60;;;3.77;;
30384;SDS011;17181;51.002;4.096;2022-10-31T07:15:07;9.27;;;4.73;;
30384;SDS011;17181;51.002;4.096;2022-10-31T07:17:33;5.73;;;4.20;;
30384;SDS011;17181;51.002;4.096;2022-10-31T07:20:00;8.30;;;4.43;;
30384;SDS011;17181;51.002;4.096;2022-10-31T07:22:31;6.33;;;4.03;;
30384;SDS011;17181;51.002;4.096;2022-10-31T07:24:58;6.03;;;2.87;;
30384;SDS011;17181;51.002;4.096;2022-10-31T07:27:50;11.50;;;3.67;;
30384;SDS011;17181;51.002;4.096;2022-10-31T07:30:17;12.23;;;4.50;;
30384;SDS011;17181;51.002;4.096;2022-10-31T07:32:48;10.07;;;4.80;;
30384;SDS011;17181;51.002;4.096;2022-10-31T07:35:17;8.50;;;4.90;;
30384;SDS011;17181;51.002;4.096;2022-10-31T07:37:46;7.20;;;4.10;;
30384;SDS011;17181;51.002;4.096;2022-10-31T07:40:14;8.17;;;4.20;;
30384;SDS011;17181;51.002;4.096;2022-10-31T07:42:42;10.33;;;5.43;;
30384;SDS011;17181;51.002;4.096;2022-10-31T07:45:29;7.07;;;4.57;;
30384;SDS011;17181;51.002;4.096;2022-10-31T07:48:27;6.67;;;3.90;;
30384;SDS011;17181;51.002;4.096;2022-10-31T07:51:28;10.70;;;5.13;;
30384;SDS011;17181;51.002;4.096;2022-10-31T07:54:14;7.97;;;4.60;;
30384;SDS011;17181;51.002;4.096;2022-10-31T07:56:41;10.10;;;4.20;;
30384;SDS011;17181;51.002;4.096;2022-10-31T07:59:07;14.53;;;5.30;;
30384;SDS011;17181;51.002;4.096;2022-10-31T08:01:33;6.97;;;4.90;;
30384;SDS011;17181;51.002;4.096;2022-10-31T08:04:28;8.13;;;4.67;;
30384;SDS011;17181;51.002;4.096;2022-10-31T08:07:16;9.07;;;5.23;;
30384;SDS011;17181;51.002;4.096;2022-10-31T08:09:48;9.10;;;4.80;;
30384;SDS011;17181;51.002;4.096;2022-10-31T08:12:19;9.83;;;5.97;;
30384;SDS011;17181;51.002;4.096;2022-10-31T08:14:45;10.23;;;4.87;;
30384;SDS011;17181;51.002;4.096;2022-10-31T08:17:13;8.67;;;4.93;;
30384;SDS011;17181;51.002;4.096;2022-10-31T08:19:51;10.87;;;5.83;;
30384;SDS011;17181;51.002;4.096;2022-10-31T08:22:20;12.40;;;6.40;;
30384;SDS011;17181;51.002;4.096;2022-10-31T08:24:47;16.23;;;7.23;;
30384;SDS011;17181;51.002;4.096;2022-10-31T08:27:13;12.13;;;6.80;;
30384;SDS011;17181;51.002;4.096;2022-10-31T08:29:39;10.93;;;6.67;;
30384;SDS011;17181;51.002;4.096;2022-10-31T08:32:05;17.40;;;8.17;;
30384;SDS011;17181;51.002;4.096;2022-10-31T08:34:56;13.40;;;7.37;;
30384;SDS011;17181;51.002;4.096;2022-10-31T08:37:42;24.20;;;9.07;;
30384;SDS011;17181;51.002;4.096;2022-10-31T08:40:08;12.90;;;7.83;;
30384;SDS011;17181;51.002;4.096;2022-10-31T08:42:36;14.80;;;6.10;;
30384;SDS011;17181;51.002;4.096;2022-10-31T08:45:02;12.30;;;6.77;;
30384;SDS011;17181;51.002;4.096;2022-10-31T08:47:30;16.50;;;9.47;;
30384;SDS011;17181;51.002;4.096;2022-10-31T08:49:57;16.10;;;8.10;;
30384;SDS011;17181;51.002;4.096;2022-10-31T08:52:23;19.90;;;8.43;;
30384;SDS011;17181;51.002;4.096;2022-10-31T08:54:51;13.23;;;7.80;;
30384;SDS011;17181;51.002;4.096;2022-10-31T08:57:36;15.23;;;7.63;;
30384;SDS011;17181;51.002;4.096;2022-10-31T09:00:02;13.80;;;7.53;;
30384;SDS011;17181;51.002;4.096;2022-10-31T09:02:45;17.47;;;8.07;;
30384;SDS011;17181;51.002;4.096;2022-10-31T09:05:12;18.07;;;8.50;;
30384;SDS011;17181;51.002;4.096;2022-10-31T09:07:38;13.17;;;8.37;;
30384;SDS011;17181;51.002;4.096;2022-10-31T09:10:04;19.23;;;8.17;;
30384;SDS011;17181;51.002;4.096;2022-10-31T09:12:34;15.57;;;7.30;;
30384;SDS011;17181;51.002;4.096;2022-10-31T09:15:18;16.57;;;7.37;;
30384;SDS011;17181;51.002;4.096;2022-10-31T09:17:52;11.23;;;7.47;;
30384;SDS011;17181;51.002;4.096;2022-10-31T09:20:32;16.70;;;7.63;;
30384;SDS011;17181;51.002;4.096;2022-10-31T09:23:11;17.43;;;7.80;;
30384;SDS011;17181;51.002;4.096;2022-10-31T09:25:39;14.90;;;6.50;;
30384;SDS011;17181;51.002;4.096;2022-10-31T09:28:24;12.77;;;6.17;;
30384;SDS011;17181;51.002;4.096;2022-10-31T09:30:52;8.90;;;6.20;;
30384;SDS011;17181;51.002;4.096;2022-10-31T09:33:57;12.63;;;6.60;;
30384;SDS011;17181;51.002;4.096;2022-10-31T09:36:35;15.17;;;7.73;;
30384;SDS011;17181;51.002;4.096;2022-10-31T09:39:04;15.77;;;8.07;;
30384;SDS011;17181;51.002;4.096;2022-10-31T09:41:46;16.17;;;7.67;;
30384;SDS011;17181;51.002;4.096;2022-10-31T09:44:25;14.57;;;8.80;;
30384;SDS011;17181;51.002;4.096;2022-10-31T09:47:09;15.63;;;8.13;;
30384;SDS011;17181;51.002;4.096;2022-10-31T09:50:13;15.60;;;7.63;;
30384;SDS011;17181;51.002;4.096;2022-10-31T09:53:23;22.97;;;6.83;;
30384;SDS011;17181;51.002;4.096;2022-10-31T09:56:00;16.87;;;7.20;;
30384;SDS011;17181;51.002;4.096;2022-10-31T09:58:31;13.63;;;7.57;;
30384;SDS011;17181;51.002;4.096;2022-10-31T10:00:59;10.83;;;7.07;;
30384;SDS011;17181;51.002;4.096;2022-10-31T10:03:33;18.53;;;8.27;;
30384;SDS011;17181;51.002;4.096;2022-10-31T10:06:41;22.17;;;9.07;;
30384;SDS011;17181;51.002;4.096;2022-10-31T10:09:34;17.73;;;8.57;;
30384;SDS011;17181;51.002;4.096;2022-10-31T10:26:10;16.97;;;9.17;;
30384;SDS011;17181;51.002;4.096;2022-10-31T10:28:52;21.60;;;12.00;;
30384;SDS011;17181;51.002;4.096;2022-10-31T10:31:33;30.17;;;9.50;;
30384;SDS011;17181;51.002;4.096;2022-10-31T10:34:17;20.13;;;8.50;;
30384;SDS011;17181;51.002;4.096;2022-10-31T10:39:26;15.17;;;9.10;;
30384;SDS011;17181;51.002;4.096;2022-10-31T10:42:14;14.90;;;8.70;;
30384;SDS011;17181;51.002;4.096;2022-10-31T10:45:00;18.40;;;9.00;;
30384;SDS011;17181;51.002;4.096;2022-10-31T10:47:58;14.10;;;8.30;;
30384;SDS011;17181;51.002;4.096;2022-10-31T10:50:36;17.30;;;7.80;;
30384;SDS011;17181;51.002;4.096;2022-10-31T10:58:29;11.63;;;7.80;;
30384;SDS011;17181;51.002;4.096;2022-10-31T11:00:54;15.40;;;6.97;;
30384;SDS011;17181;51.002;4.096;2022-10-31T11:03:21;20.13;;;7.83;;
30384;SDS011;17181;51.002;4.096;2022-10-31T11:05:55;14.67;;;7.70;;
30384;SDS011;17181;51.002;4.096;2022-10-31T11:08:24;14.03;;;7.37;;
30384;SDS011;17181;51.002;4.096;2022-10-31T11:11:01;12.63;;;7.87;;
30384;SDS011;17181;51.002;4.096;2022-10-31T11:13:27;11.83;;;5.90;;
30384;SDS011;17181;51.002;4.096;2022-10-31T11:16:04;10.07;;;6.63;;
30384;SDS011;17181;51.002;4.096;2022-10-31T11:18:36;13.03;;;7.03;;
30384;SDS011;17181;51.002;4.096;2022-10-31T11:21:05;14.20;;;6.57;;
30384;SDS011;17181;51.002;4.096;2022-10-31T11:23:43;14.30;;;7.80;;
30384;SDS011;17181;51.002;4.096;2022-10-31T11:26:15;16.40;;;7.87;;
30384;SDS011;17181;51.002;4.096;2022-10-31T11:28:45;16.40;;;7.93;;
30384;SDS011;17181;51.002;4.096;2022-10-31T11:31:22;15.03;;;6.97;;
30384;SDS011;17181;51.002;4.096;2022-10-31T11:33:49;8.90;;;6.10;;
30384;SDS011;17181;51.002;4.096;2022-10-31T11:36:22;12.43;;;6.50;;
30384;SDS011;17181;51.002;4.096;2022-10-31T11:38:51;12.67;;;6.10;;
30384;SDS011;17181;51.002;4.096;2022-10-31T11:41:18;15.03;;;7.97;;
30384;SDS011;17181;51.002;4.096;2022-10-31T11:46:25;13.43;;;7.30;;
30384;SDS011;17181;51.002;4.096;2022-10-31T11:49:00;14.03;;;7.17;;
30384;SDS011;17181;51.002;4.096;2022-10-31T11:51:27;16.03;;;7.60;;
30384;SDS011;17181;51.002;4.096;2022-10-31T11:54:01;13.10;;;7.17;;
30384;SDS011;17181;51.002;4.096;2022-10-31T11:56:39;13.87;;;7.27;;
30384;SDS011;17181;51.002;4.096;2022-10-31T11:59:14;11.47;;;7.40;;
30384;SDS011;17181;51.002;4.096;2022-10-31T12:01:47;12.17;;;7.83;;
30384;SDS011;17181;51.002;4.096;2022-10-31T12:04:15;11.57;;;5.73;;
30384;SDS011;17181;51.002;4.096;2022-10-31T12:06:45;14.63;;;8.17;;
30384;SDS011;17181;51.002;4.096;2022-10-31T12:09:22;13.70;;;6.53;;
30384;SDS011;17181;51.002;4.096;2022-10-31T12:17:36;12.97;;;6.30;;
30384;SDS011;17181;51.002;4.096;2022-10-31T12:23:16;13.67;;;6.30;;
30384;SDS011;17181;51.002;4.096;2022-10-31T12:28:39;16.00;;;7.13;;
30384;SDS011;17181;51.002;4.096;2022-10-31T12:34:02;11.63;;;6.73;;
30384;SDS011;17181;51.002;4.096;2022-10-31T12:37:07;12.90;;;6.20;;
30384;SDS011;17181;51.002;4.096;2022-10-31T12:58:36;15.33;;;7.80;;
30384;SDS011;17181;51.002;4.096;2022-10-31T13:01:26;14.53;;;6.97;;
30384;SDS011;17181;51.002;4.096;2022-10-31T13:04:01;9.20;;;6.40;;
30384;SDS011;17181;51.002;4.096;2022-10-31T13:06:33;11.00;;;6.10;;
30384;SDS011;17181;51.002;4.096;2022-10-31T13:09:08;12.33;;;6.30;;
30384;SDS011;17181;51.002;4.096;2022-10-31T13:11:48;13.50;;;6.53;;
30384;SDS011;17181;51.002;4.096;2022-10-31T13:14:35;11.93;;;6.77;;
30384;SDS011;17181;51.002;4.096;2022-10-31T13:17:09;14.40;;;7.20;;
30384;SDS011;17181;51.002;4.096;2022-10-31T13:23:26;8.87;;;6.47;;
30384;SDS011;17181;51.002;4.096;2022-10-31T13:25:55;10.03;;;7.03;;
30384;SDS011;17181;51.002;4.096;2022-10-31T13:28:36;15.27;;;7.20;;
30384;SDS011;17181;51.002;4.096;2022-10-31T13:31:21;14.77;;;5.77;;
30384;SDS011;17181;51.002;4.096;2022-10-31T13:39:03;12.43;;;7.00;;
30384;SDS011;17181;51.002;4.096;2022-10-31T13:41:54;13.83;;;6.20;;
30384;SDS011;17181;51.002;4.096;2022-10-31T13:44:27;16.60;;;6.17;;
30384;SDS011;17181;51.002;4.096;2022-10-31T13:46:55;14.77;;;6.03;;
30384;SDS011;17181;51.002;4.096;2022-10-31T14:02:49;8.57;;;3.97;;
30384;SDS011;17181;51.002;4.096;2022-10-31T14:07:51;8.25;;;4.18;;
30384;SDS011;17181;51.002;4.096;2022-10-31T14:10:38;8.73;;;4.47;;
30384;SDS011;17181;51.002;4.096;2022-10-31T14:13:44;5.50;;;4.07;;
30384;SDS011;17181;51.002;4.096;2022-10-31T14:19:12;9.27;;;4.72;;
30384;SDS011;17181;51.002;4.096;2022-10-31T14:21:44;11.63;;;4.18;;
30384;SDS011;17181;51.002;4.096;2022-10-31T14:26:57;11.27;;;4.05;;
30384;SDS011;17181;51.002;4.096;2022-10-31T14:29:27;9.93;;;3.83;;
30384;SDS011;17181;51.002;4.096;2022-10-31T14:34:30;5.75;;;4.03;;
30384;SDS011;17181;51.002;4.096;2022-10-31T14:53:13;8.88;;;3.90;;
30384;SDS011;17181;51.002;4.096;2022-10-31T14:56:08;11.13;;;4.57;;
30384;SDS011;17181;51.002;4.096;2022-10-31T14:58:45;6.90;;;3.83;;
30384;SDS011;17181;51.002;4.096;2022-10-31T15:01:18;9.23;;;3.88;;
30384;SDS011;17181;51.002;4.096;2022-10-31T15:03:57;5.03;;;3.67;;
30384;SDS011;17181;51.002;4.096;2022-10-31T15:06:42;9.35;;;4.32;;
